ESNV

Vilhelmina Airport

Sweden
METAR ESNV 171750Z AUTO 00000KT 9999 BKN068/// 04/M00 Q1008
Observed Flight Rules
Oct-17 @ 17:50 UTC (31 minutes ago) Visual Flight Rules
Visibility Clouds
10,000+ meters
  • Broken at 6,800' AGL
Temperatures Readings
Current 4°C / 39°F
Dewpoint 0°C / 32°F
Humidity 75%
Altimeter 29.76" Hg
Pressure 1008 hPa
Elevation 348
METAR ESNV 171750Z AUTO 00000KT 9999 BKN068/// 04/M00 Q1008
Observed Flight Rules
Oct-17 @ 17:50 UTC
(31 minutes ago)
VFR
Clouds
  • Broken at 6,800' AGL
Temperature Dewpoint
4°C / 39°F 0°C / 32°F
Humidity Altimeter Pressure
75% 29.76" Hg 1008 hPa